createdAt,value
2022-08-14T00:01:03.989Z,2.58
2022-08-14T00:03:40.369Z,2.60
2022-08-14T00:06:25.410Z,2.83
2022-08-14T00:08:59.095Z,2.97
2022-08-14T00:11:31.180Z,2.60
2022-08-14T00:14:02.279Z,2.55
2022-08-14T00:16:40.917Z,3.00
2022-08-14T00:19:21.387Z,2.45
2022-08-14T00:21:50.308Z,2.30
2022-08-14T00:24:28.612Z,2.33
2022-08-14T00:27:00.487Z,2.50
2022-08-14T00:29:33.208Z,2.63
2022-08-14T00:32:53.035Z,2.70
2022-08-14T00:34:57.139Z,2.17
2022-08-14T00:37:25.281Z,2.47
2022-08-14T00:39:52.939Z,2.70
2022-08-14T00:42:55.628Z,2.85
2022-08-14T00:45:12.274Z,3.40
2022-08-14T00:47:43.196Z,2.88
2022-08-14T00:50:17.652Z,2.95
2022-08-14T00:52:51.051Z,2.70
2022-08-14T00:55:19.964Z,2.60
2022-08-14T00:58:09.103Z,2.45
2022-08-14T01:00:47.483Z,2.70
2022-08-14T01:03:19.427Z,3.33
2022-08-14T01:05:51.497Z,2.85
2022-08-14T01:08:51.476Z,3.00
2022-08-14T01:11:09.601Z,2.60
2022-08-14T01:13:42.488Z,3.40
2022-08-14T01:16:14.949Z,3.50
2022-08-14T01:19:11.476Z,2.95
2022-08-14T01:21:47.191Z,2.78
2022-08-14T01:24:28.940Z,2.55
2022-08-14T01:27:00.405Z,3.50
2022-08-14T01:29:59.164Z,2.55
2022-08-14T01:32:23.347Z,3.13
2022-08-14T01:35:19.761Z,2.33
2022-08-14T01:37:44.220Z,3.25
2022-08-14T01:40:12.639Z,2.80
2022-08-14T01:42:44.426Z,2.72
2022-08-14T01:45:17.879Z,3.20
2022-08-14T01:48:03.538Z,2.97
2022-08-14T01:50:34.505Z,3.53
2022-08-14T01:53:04.444Z,2.85
2022-08-14T01:55:33.356Z,2.97
2022-08-14T01:58:19.885Z,3.10
2022-08-14T02:00:54.444Z,3.05
2022-08-14T02:03:24.316Z,3.23
2022-08-14T02:06:03.551Z,3.37
2022-08-14T02:08:34.766Z,2.90
2022-08-14T02:11:18.932Z,2.85
2022-08-14T02:13:50.628Z,3.22
2022-08-14T02:16:22.445Z,2.95
2022-08-14T02:18:50.765Z,2.97
2022-08-14T02:21:23.361Z,2.85
2022-08-14T02:23:54.777Z,3.00
2022-08-14T02:26:29.848Z,2.67
2022-08-14T02:29:03.283Z,3.15
2022-08-14T02:31:42.560Z,2.80
2022-08-14T02:34:22.184Z,2.78
2022-08-14T02:37:05.466Z,2.92
2022-08-14T02:39:37.451Z,2.83
2022-08-14T02:42:05.788Z,3.17
2022-08-14T02:44:39.778Z,3.13
2022-08-14T02:47:15.064Z,3.42
2022-08-14T02:49:50.443Z,3.80
2022-08-14T02:52:55.656Z,3.78
2022-08-14T02:55:11.205Z,3.78
2022-08-14T02:57:41.122Z,3.83
2022-08-14T03:00:10.192Z,3.60
2022-08-14T03:02:56.003Z,4.07
2022-08-14T03:05:32.781Z,3.67
2022-08-14T03:08:08.210Z,3.35
2022-08-14T03:10:41.811Z,3.28
2022-08-14T03:13:13.745Z,3.97
2022-08-14T03:15:55.221Z,3.50
2022-08-14T03:18:31.530Z,3.75
2022-08-14T03:21:01.256Z,4.00
2022-08-14T03:23:38.235Z,3.40
2022-08-14T03:26:12.977Z,3.50
2022-08-14T03:28:46.846Z,3.25
2022-08-14T03:31:15.044Z,3.50
2022-08-14T03:33:43.370Z,3.60
2022-08-14T03:37:38.049Z,3.60
2022-08-14T03:39:14.562Z,3.58
2022-08-14T03:41:50.935Z,3.55
2022-08-14T03:45:25.297Z,3.47
2022-08-14T03:47:08.145Z,4.70
2022-08-14T03:49:41.926Z,3.70
2022-08-14T03:52:37.882Z,3.08
2022-08-14T03:54:59.223Z,3.30
2022-08-14T03:57:29.623Z,2.65
2022-08-14T03:59:57.273Z,3.17
2022-08-14T04:02:32.400Z,3.10
2022-08-14T04:05:08.223Z,3.40
2022-08-14T04:07:49.937Z,2.63
2022-08-14T04:10:32.327Z,2.60
2022-08-14T04:13:03.988Z,3.00
2022-08-14T04:15:56.335Z,3.20
2022-08-14T04:18:20.365Z,3.13
2022-08-14T04:20:54.653Z,2.67
2022-08-14T04:25:58.072Z,2.80
2022-08-14T04:29:01.578Z,3.10
2022-08-14T04:31:17.082Z,2.97
2022-08-14T04:33:53.415Z,2.80
2022-08-14T04:36:21.675Z,2.90
2022-08-14T04:39:08.944Z,3.25
2022-08-14T04:41:57.216Z,3.20
2022-08-14T04:44:35.927Z,3.47
2022-08-14T04:47:22.543Z,2.70
2022-08-14T04:49:56.944Z,2.60
2022-08-14T04:52:25.614Z,3.25
2022-08-14T04:54:54.686Z,3.28
2022-08-14T04:57:23.008Z,2.67
2022-08-14T04:59:53.214Z,3.15
2022-08-14T05:02:24.479Z,2.70
2022-08-14T05:04:56.770Z,3.25
2022-08-14T05:07:47.042Z,3.65
2022-08-14T05:10:16.641Z,3.30
2022-08-14T05:15:40.054Z,3.83
2022-08-14T05:18:37.101Z,3.22
2022-08-14T05:21:57.841Z,3.10
2022-08-14T05:23:49.658Z,3.63
2022-08-14T05:26:18.326Z,3.40
2022-08-14T05:28:46.439Z,2.60
2022-08-14T05:31:20.699Z,3.35
2022-08-14T05:33:56.925Z,3.15
2022-08-14T05:36:26.973Z,3.35
2022-08-14T05:38:55.344Z,3.20
2022-08-14T05:41:23.640Z,2.80
2022-08-14T05:44:12.185Z,2.78
2022-08-14T05:46:41.255Z,3.35
2022-08-14T05:49:10.785Z,2.95
2022-08-14T05:51:39.771Z,3.65
2022-08-14T05:54:12.655Z,3.15
2022-08-14T05:56:41.487Z,2.67
2022-08-14T05:59:09.576Z,2.67
2022-08-14T06:01:38.623Z,3.28
2022-08-14T06:04:07.730Z,3.33
2022-08-14T06:06:38.447Z,3.20
2022-08-14T06:09:16.503Z,3.20
2022-08-14T06:11:45.692Z,3.60
2022-08-14T06:14:21.284Z,3.60
2022-08-14T06:16:52.925Z,3.35
2022-08-14T06:19:23.160Z,2.85
2022-08-14T06:21:58.164Z,2.72
2022-08-14T06:24:27.423Z,3.25
2022-08-14T06:27:04.821Z,3.25
2022-08-14T06:29:35.235Z,2.75
2022-08-14T06:32:38.133Z,2.83
2022-08-14T06:35:02.718Z,3.20
2022-08-14T06:37:45.148Z,3.10
2022-08-14T06:40:16.577Z,2.88
2022-08-14T06:42:54.792Z,3.25
2022-08-14T06:45:26.451Z,3.15
2022-08-14T06:47:55.467Z,2.65
2022-08-14T06:50:30.234Z,2.60
2022-08-14T06:52:58.721Z,2.88
2022-08-14T06:55:28.243Z,2.72
2022-08-14T06:57:58.129Z,2.97
2022-08-14T07:00:30.909Z,3.05
2022-08-14T07:03:19.398Z,3.08
2022-08-14T07:05:55.967Z,2.50
2022-08-14T07:08:29.649Z,2.83
2022-08-14T07:11:00.151Z,2.75
2022-08-14T07:13:30.467Z,2.38
2022-08-14T07:16:00.697Z,3.20
2022-08-14T07:18:33.772Z,2.85
2022-08-14T07:21:03.692Z,2.80
2022-08-14T07:23:31.605Z,2.42
2022-08-14T07:26:10.124Z,2.75
2022-08-14T07:28:43.477Z,2.85
2022-08-14T07:31:12.359Z,2.60
2022-08-14T07:33:41.953Z,3.47
2022-08-14T07:36:26.558Z,3.00
2022-08-14T07:38:58.373Z,3.25
2022-08-14T07:41:34.096Z,2.97
2022-08-14T07:44:28.808Z,3.10
2022-08-14T07:46:52.132Z,3.03
2022-08-14T07:49:20.008Z,2.97
2022-08-14T07:51:50.600Z,2.90
2022-08-14T07:54:23.092Z,2.60
2022-08-14T07:56:58.059Z,2.92
2022-08-14T07:59:41.042Z,3.33
2022-08-14T08:02:19.674Z,2.92
2022-08-14T08:04:53.024Z,2.85
2022-08-14T08:07:23.923Z,3.00
2022-08-14T08:09:55.399Z,2.85
2022-08-14T08:12:28.139Z,3.00
2022-08-14T08:15:05.577Z,2.80
2022-08-14T08:17:39.049Z,3.22
2022-08-14T08:20:13.860Z,2.40
2022-08-14T08:22:48.207Z,3.55
2022-08-14T08:25:18.335Z,3.10
2022-08-14T08:27:55.293Z,2.80
2022-08-14T08:30:23.186Z,2.72
2022-08-14T08:32:52.978Z,3.30
2022-08-14T08:35:22.215Z,2.63
2022-08-14T08:38:01.044Z,2.80
2022-08-14T08:40:31.520Z,2.88
2022-08-14T08:43:00.347Z,2.60
2022-08-14T08:45:29.163Z,2.80
2022-08-14T08:47:56.919Z,3.00
2022-08-14T08:50:31.217Z,3.13
2022-08-14T08:53:02.103Z,2.50
2022-08-14T08:55:31.254Z,2.40
2022-08-14T08:57:59.859Z,2.47
2022-08-14T09:00:29.945Z,3.00
2022-08-14T09:02:59.344Z,3.00
2022-08-14T09:05:27.431Z,2.80
2022-08-14T09:07:56.426Z,2.42
2022-08-14T09:10:27.385Z,2.65
2022-08-14T09:12:57.418Z,2.80
2022-08-14T09:15:25.044Z,2.55
2022-08-14T09:17:54.520Z,2.08
2022-08-14T09:20:29.444Z,2.67
2022-08-14T09:22:57.658Z,2.50
2022-08-14T09:26:00.639Z,2.80
2022-08-14T09:28:15.499Z,2.95
2022-08-14T09:30:44.394Z,2.88
2022-08-14T09:33:43.052Z,3.17
2022-08-14T09:36:38.146Z,3.35
2022-08-14T09:39:23.183Z,2.72
2022-08-14T09:42:20.352Z,2.38
2022-08-14T09:44:51.718Z,3.03
2022-08-14T09:47:21.286Z,2.30
2022-08-14T09:49:53.071Z,2.13
2022-08-14T09:52:23.812Z,2.38
2022-08-14T09:55:02.612Z,2.15
2022-08-14T09:57:32.344Z,2.22
2022-08-14T10:00:12.041Z,1.85
2022-08-14T10:03:05.162Z,2.03
2022-08-14T10:05:35.049Z,2.20
2022-08-14T10:08:17.313Z,1.90
2022-08-14T10:11:02.467Z,1.65
2022-08-14T10:13:43.220Z,2.00
2022-08-14T10:16:27.408Z,2.13
2022-08-14T10:19:07.073Z,2.00
2022-08-14T10:21:38.758Z,1.92
2022-08-14T10:24:36.052Z,2.00
2022-08-14T10:27:05.004Z,1.98
2022-08-14T10:29:35.059Z,1.77
2022-08-14T10:32:04.383Z,1.65
2022-08-14T10:34:47.275Z,1.98
2022-08-14T10:37:23.611Z,1.80
2022-08-14T10:40:10.299Z,1.88
2022-08-14T10:42:39.594Z,2.08
2022-08-14T10:45:21.388Z,1.90
2022-08-14T10:48:09.084Z,1.80
2022-08-14T10:50:38.626Z,1.92
2022-08-14T10:53:08.073Z,1.58
2022-08-14T10:55:39.444Z,1.77
2022-08-14T10:58:14.938Z,1.75
2022-08-14T11:00:56.821Z,1.90
2022-08-14T11:03:35.659Z,1.67
2022-08-14T11:06:20.116Z,1.60
2022-08-14T11:08:49.105Z,2.25
2022-08-14T11:11:18.971Z,1.80
2022-08-14T11:13:46.772Z,1.88
2022-08-14T11:16:16.640Z,1.80
2022-08-14T11:18:46.231Z,1.75
2022-08-14T11:21:23.317Z,1.63
2022-08-14T11:23:53.695Z,1.83
2022-08-14T11:26:28.012Z,1.65
2022-08-14T11:28:59.853Z,1.67
2022-08-14T11:31:35.499Z,1.75
2022-08-14T11:34:10.304Z,1.83
2022-08-14T11:37:02.197Z,1.60
2022-08-14T11:39:45.437Z,1.40
2022-08-14T11:42:58.398Z,1.60
2022-08-14T11:45:11.501Z,2.17
2022-08-14T11:48:10.668Z,1.80
2022-08-14T11:50:37.917Z,1.65
2022-08-14T11:53:07.777Z,1.67
2022-08-14T11:55:38.150Z,1.90
2022-08-14T11:58:08.812Z,1.90
2022-08-14T12:00:46.740Z,1.73
2022-08-14T12:03:19.911Z,1.90
2022-08-14T12:06:05.449Z,1.83
2022-08-14T12:08:34.860Z,2.00
2022-08-14T12:11:07.323Z,1.88
2022-08-14T12:13:37.579Z,1.80
2022-08-14T12:16:20.482Z,1.90
2022-08-14T12:18:50.938Z,1.83
2022-08-14T12:21:23.908Z,1.80
2022-08-14T12:24:02.484Z,1.67
2022-08-14T12:26:38.899Z,1.98
2022-08-14T12:29:09.152Z,1.90
2022-08-14T12:31:44.564Z,1.60
2022-08-14T12:34:19.998Z,1.73
2022-08-14T12:36:48.654Z,1.70
2022-08-14T12:39:20.256Z,1.73
2022-08-14T12:41:53.875Z,1.67
2022-08-14T12:44:32.667Z,2.08
2022-08-14T12:47:04.151Z,1.90
2022-08-14T12:49:35.407Z,2.30
2022-08-14T12:52:03.929Z,2.00
2022-08-14T12:54:32.476Z,1.85
2022-08-14T12:57:08.032Z,2.05
2022-08-14T12:59:40.044Z,2.15
2022-08-14T13:02:20.360Z,1.58
2022-08-14T13:04:51.492Z,2.10
2022-08-14T13:07:22.038Z,1.75
2022-08-14T13:09:55.587Z,1.80
2022-08-14T13:12:33.186Z,2.00
2022-08-14T13:15:08.724Z,1.70
2022-08-14T13:17:43.172Z,1.90
2022-08-14T13:20:24.483Z,1.75
2022-08-14T13:22:53.229Z,1.80
2022-08-14T13:25:21.801Z,1.98
2022-08-14T13:27:51.400Z,2.13
2022-08-14T13:30:24.415Z,1.90
2022-08-14T13:32:52.808Z,1.70
2022-08-14T13:35:22.878Z,1.80
2022-08-14T13:37:52.295Z,1.65
2022-08-14T13:40:26.697Z,1.70
2022-08-14T13:42:57.107Z,1.77
2022-08-14T13:45:32.629Z,1.70
2022-08-14T13:48:28.445Z,1.92
2022-08-14T13:51:04.250Z,1.63
2022-08-14T13:53:35.068Z,1.67
2022-08-14T13:56:06.343Z,1.50
2022-08-14T13:58:35.560Z,1.80
2022-08-14T14:01:04.455Z,1.60
2022-08-14T14:03:35.046Z,1.80
2022-08-14T14:06:04.602Z,1.90
2022-08-14T14:08:46.598Z,1.45
2022-08-14T14:11:16.600Z,1.63
2022-08-14T14:13:45.728Z,1.73
2022-08-14T14:16:15.092Z,1.60
2022-08-14T14:18:49.243Z,1.80
2022-08-14T14:21:22.041Z,1.90
2022-08-14T14:23:50.105Z,1.73
2022-08-14T14:26:23.014Z,2.00
2022-08-14T14:28:52.302Z,1.90
2022-08-14T14:31:24.100Z,1.67
2022-08-14T14:33:59.346Z,1.52
2022-08-14T14:36:29.177Z,1.67
2022-08-14T14:38:57.718Z,1.55
2022-08-14T14:41:26.196Z,1.52
2022-08-14T14:43:54.564Z,1.58
2022-08-14T14:46:36.410Z,1.70
2022-08-14T14:49:07.712Z,1.77
2022-08-14T14:51:53.762Z,1.50
2022-08-14T14:54:31.065Z,1.52
2022-08-14T14:57:09.293Z,1.35
2022-08-14T14:59:37.407Z,1.85
2022-08-14T15:02:07.852Z,1.50
2022-08-14T15:04:37.850Z,1.63
2022-08-14T15:07:07.514Z,1.30
2022-08-14T15:09:35.375Z,1.92
2022-08-14T15:12:16.041Z,1.33
2022-08-14T15:14:56.977Z,1.60
2022-08-14T15:17:28.396Z,1.83
2022-08-14T15:20:03.799Z,1.90
2022-08-14T15:22:32.895Z,2.20
2022-08-14T15:25:01.238Z,1.80
2022-08-14T15:27:31.592Z,1.90
2022-08-14T15:30:00.628Z,2.00
2022-08-14T15:32:29.230Z,1.90
2022-08-14T15:34:57.990Z,1.70
2022-08-14T15:37:25.617Z,1.80
2022-08-14T15:40:03.308Z,1.85
2022-08-14T15:42:38.445Z,1.75
2022-08-14T15:45:10.248Z,2.10
2022-08-14T15:47:41.622Z,1.73
2022-08-14T15:50:11.007Z,1.83
2022-08-14T15:52:39.207Z,2.35
2022-08-14T15:55:09.622Z,1.88
2022-08-14T15:57:37.494Z,1.98
2022-08-14T16:00:41.771Z,1.67
2022-08-14T16:03:15.877Z,1.67
2022-08-14T16:05:46.267Z,2.00
2022-08-14T16:08:24.317Z,1.70
2022-08-14T16:10:59.210Z,1.77
2022-08-14T16:13:39.305Z,1.73
2022-08-14T16:16:48.052Z,1.70
2022-08-14T16:19:07.326Z,1.98
2022-08-14T16:21:39.396Z,1.88
2022-08-14T16:24:08.219Z,1.90
2022-08-14T16:27:00.994Z,1.73
2022-08-14T16:29:29.166Z,1.90
2022-08-14T16:31:58.050Z,1.73
2022-08-14T16:34:45.805Z,1.73
2022-08-14T16:37:15.961Z,1.63
2022-08-14T16:39:44.154Z,1.80
2022-08-14T16:42:39.014Z,1.80
2022-08-14T16:45:02.696Z,2.05
2022-08-14T16:47:32.183Z,1.83
2022-08-14T16:50:08.923Z,1.77
2022-08-14T16:52:44.265Z,1.77
2022-08-14T16:55:13.926Z,1.70
2022-08-14T16:57:50.018Z,1.70
2022-08-14T17:00:28.508Z,1.77
2022-08-14T17:03:01.285Z,1.55
2022-08-14T17:05:29.351Z,1.80
2022-08-14T17:08:32.996Z,1.70
2022-08-14T17:11:11.031Z,1.70
2022-08-14T17:13:58.154Z,2.00
2022-08-14T17:16:29.633Z,1.70
2022-08-14T17:19:01.664Z,1.70
2022-08-14T17:21:32.250Z,1.67
2022-08-14T17:24:00.933Z,1.80
2022-08-14T17:26:50.853Z,1.52
2022-08-14T17:29:29.265Z,1.83
2022-08-14T17:32:01.853Z,1.70
2022-08-14T17:34:44.447Z,1.83
2022-08-14T17:37:23.696Z,1.67
2022-08-14T17:40:00.628Z,1.83
2022-08-14T17:42:43.246Z,2.00
2022-08-14T17:45:12.459Z,1.88
2022-08-14T17:47:40.572Z,1.80
2022-08-14T17:51:00.178Z,1.95
2022-08-14T17:52:59.103Z,1.80
2022-08-14T17:56:02.875Z,1.75
2022-08-14T17:58:20.333Z,1.70
2022-08-14T18:00:52.230Z,1.98
2022-08-14T18:03:49.932Z,1.88
2022-08-14T18:06:38.697Z,1.38
2022-08-14T18:08:59.049Z,1.50
2022-08-14T18:11:46.368Z,1.58
2022-08-14T18:14:31.372Z,1.48
2022-08-14T18:17:02.909Z,1.98
2022-08-14T18:19:31.538Z,1.70
2022-08-14T18:22:05.800Z,1.70
2022-08-14T18:24:54.172Z,1.90
2022-08-14T18:27:24.569Z,1.60
2022-08-14T18:29:54.660Z,2.70
2022-08-14T18:32:47.323Z,2.38
2022-08-14T18:35:23.956Z,1.52
2022-08-14T18:38:26.045Z,1.70
2022-08-14T18:41:25.223Z,2.10
2022-08-14T18:44:05.242Z,2.20
2022-08-14T18:47:00.778Z,1.90
2022-08-14T18:49:33.488Z,2.42
2022-08-14T18:52:19.033Z,1.90
2022-08-14T18:54:48.404Z,2.17
2022-08-14T18:57:20.195Z,2.10
2022-08-14T18:59:48.744Z,2.22
2022-08-14T19:02:42.998Z,2.00
2022-08-14T19:05:13.499Z,1.75
2022-08-14T19:07:43.510Z,2.15
2022-08-14T19:10:32.018Z,1.98
2022-08-14T19:13:13.050Z,2.38
2022-08-14T19:15:42.822Z,2.13
2022-08-14T19:18:26.531Z,2.60
2022-08-14T19:20:58.490Z,1.92
2022-08-14T19:23:44.260Z,2.13
2022-08-14T19:26:37.007Z,1.73
2022-08-14T19:29:25.582Z,1.63
2022-08-14T19:31:56.038Z,2.40
2022-08-14T19:34:52.582Z,1.95
2022-08-14T19:37:36.853Z,1.80
2022-08-14T19:40:15.366Z,1.80
2022-08-14T19:42:49.014Z,2.50
2022-08-14T19:45:16.802Z,2.00
2022-08-14T19:47:50.057Z,1.67
2022-08-14T19:50:30.522Z,1.67
2022-08-14T19:53:11.423Z,2.22
2022-08-14T19:55:45.417Z,2.10
2022-08-14T19:58:14.008Z,1.95
2022-08-14T20:00:51.779Z,1.88
2022-08-14T20:03:24.059Z,1.88
2022-08-14T20:06:00.651Z,1.90
2022-08-14T20:10:59.186Z,2.08
2022-08-14T20:12:02.093Z,2.28
2022-08-14T20:14:20.805Z,1.90
2022-08-14T20:16:51.797Z,1.90
2022-08-14T20:19:28.621Z,1.65
2022-08-14T20:22:34.863Z,2.00
2022-08-14T20:24:47.256Z,1.60
2022-08-14T20:27:22.507Z,2.05
2022-08-14T20:30:29.942Z,2.00
2022-08-14T20:32:56.417Z,2.10
2022-08-14T20:35:35.146Z,1.75
2022-08-14T20:38:31.488Z,2.20
2022-08-14T20:40:53.635Z,2.00
2022-08-14T20:43:41.721Z,1.60
2022-08-14T20:46:13.681Z,2.10
2022-08-14T20:48:57.351Z,2.10
2022-08-14T20:51:26.115Z,1.90
2022-08-14T20:54:05.365Z,1.80
2022-08-14T20:56:34.444Z,2.13
2022-08-14T20:59:15.477Z,2.45
2022-08-14T21:01:50.210Z,2.38
2022-08-14T21:04:29.196Z,2.30
2022-08-14T21:07:25.877Z,2.28
2022-08-14T21:10:04.738Z,2.25
2022-08-14T21:12:36.016Z,2.22
2022-08-14T21:15:11.160Z,2.22
2022-08-14T21:17:47.221Z,2.00
2022-08-14T21:20:26.507Z,2.90
2022-08-14T21:23:00.516Z,2.85
2022-08-14T21:25:31.455Z,2.22
2022-08-14T21:28:00.910Z,2.58
2022-08-14T21:30:51.797Z,2.30
2022-08-14T21:33:20.613Z,2.40
2022-08-14T21:35:49.872Z,2.72
2022-08-14T21:38:31.336Z,2.15
2022-08-14T21:41:02.879Z,2.30
2022-08-14T21:43:54.239Z,2.50
2022-08-14T21:46:22.170Z,2.08
2022-08-14T21:48:53.793Z,2.42
2022-08-14T21:51:56.964Z,2.60
2022-08-14T21:54:32.027Z,2.53
2022-08-14T21:56:58.023Z,2.65
2022-08-14T21:59:28.986Z,2.88
2022-08-14T22:02:01.976Z,2.47
2022-08-14T22:04:39.992Z,2.22
2022-08-14T22:07:09.393Z,2.58
2022-08-14T22:09:37.788Z,2.15
2022-08-14T22:12:12.538Z,2.25
2022-08-14T22:15:00.382Z,2.47
2022-08-14T22:17:32.171Z,2.53
2022-08-14T22:20:05.124Z,2.53
2022-08-14T22:22:32.995Z,1.90
2022-08-14T22:25:01.279Z,2.05
2022-08-14T22:27:31.273Z,2.05
2022-08-14T22:30:00.441Z,2.65
2022-08-14T22:32:56.102Z,2.22
2022-08-14T22:35:17.545Z,2.05
2022-08-14T22:37:46.003Z,2.13
2022-08-14T22:41:09.515Z,2.00
2022-08-14T22:43:19.683Z,2.22
2022-08-14T22:45:55.220Z,2.22
2022-08-14T22:48:23.591Z,2.10
2022-08-14T22:50:53.766Z,1.90
2022-08-14T22:53:21.989Z,2.35
2022-08-14T22:55:52.256Z,2.72
2022-08-14T22:58:30.505Z,2.33
2022-08-14T23:01:01.366Z,2.50
2022-08-14T23:03:34.242Z,2.22
2022-08-14T23:07:02.667Z,2.55
2022-08-14T23:08:58.412Z,2.50
2022-08-14T23:11:29.518Z,1.90
2022-08-14T23:14:00.863Z,2.10
2022-08-14T23:16:29.952Z,2.17
2022-08-14T23:18:58.047Z,1.80
2022-08-14T23:21:28.808Z,1.85
2022-08-14T23:23:57.354Z,1.80
2022-08-14T23:26:48.523Z,2.13
2022-08-14T23:29:13.232Z,1.77
2022-08-14T23:31:43.775Z,2.10
2022-08-14T23:34:20.785Z,1.95
2022-08-14T23:36:54.611Z,1.67
2022-08-14T23:39:24.319Z,2.00
2022-08-14T23:41:53.766Z,1.80
2022-08-14T23:44:22.043Z,2.08
2022-08-14T23:46:56.505Z,1.90
2022-08-14T23:49:25.183Z,2.00
2022-08-14T23:51:59.847Z,1.98
2022-08-14T23:54:48.676Z,2.78
2022-08-14T23:57:19.006Z,2.20
2022-08-14T23:59:54.309Z,2.17
